METAR Data
IDs: Format: Raw Decoded Include TAF

Data at: 0738 UTC 07 Apr 2020

KTEX 070715Z AUTO 00000KT 10SM CLR 05/M12 A3022 RMK AO2

KTEX 070520Z 0706/0806 16010KT P6SM SKC
  FM071000 14008KT P6SM SKC
  FM071700 21010G19KT P6SM SKC
  FM080200 14008KT P6SM SKC